Time;durP1;ratioP1;P1;durP2;ratioP2;P2;SDS_P1;SDS_P2;PMS_P1;PMS_P2;Temp;Humidity;BMP_temperature;BMP_pressure;BME280_temperature;BME280_humidity;BME280_pressure;Samples;Min_cycle;Max_cycle;Signal;HPM_P1;HPM_P2
2022/06/25 00:01:10;;;;;;;5.17;1.73;;;16.00;71.50;;;;;;5032981;28;46456;-60
2022/06/25 00:03:36;;;;;;;4.00;1.70;;;15.90;71.40;;;;;;5032112;28;46458;-61
2022/06/25 00:06:03;;;;;;;7.27;1.50;;;15.90;71.30;;;;;;5036145;28;47013;-62
2022/06/25 00:08:29;;;;;;;3.80;1.57;;;15.90;71.20;;;;;;5030934;28;46285;-61
2022/06/25 00:10:55;;;;;;;6.53;1.67;;;16.00;71.20;;;;;;5030540;28;46391;-62
2022/06/25 00:13:21;;;;;;;7.97;1.60;;;15.90;71.20;;;;;;5033760;28;46373;-62
2022/06/25 00:15:47;;;;;;;4.80;1.63;;;15.90;71.50;;;;;;5027196;28;46111;-62
2022/06/25 00:18:14;;;;;;;6.27;1.60;;;15.90;71.60;;;;;;5030722;28;46421;-63
2022/06/25 00:20:40;;;;;;;9.63;1.40;;;15.90;71.50;;;;;;5028813;28;46514;-60
2022/06/25 00:23:06;;;;;;;8.90;1.27;;;15.90;71.70;;;;;;5034339;28;46568;-61
2022/06/25 00:25:32;;;;;;;7.43;1.33;;;15.90;71.50;;;;;;5036011;28;47149;-62
2022/06/25 00:27:57;;;;;;;6.13;1.43;;;15.90;71.50;;;;;;5033842;28;45723;-62
2022/06/25 00:30:23;;;;;;;4.20;1.43;;;15.90;71.40;;;;;;5033511;28;46370;-61
2022/06/25 00:32:49;;;;;;;4.20;1.83;;;15.90;71.40;;;;;;5031298;28;46649;-61
2022/06/25 00:35:15;;;;;;;2.67;1.40;;;15.90;71.30;;;;;;5030577;28;47309;-60
2022/06/25 00:37:41;;;;;;;5.10;1.63;;;16.00;71.30;;;;;;5035941;28;46345;-60
2022/06/25 00:40:08;;;;;;;3.87;1.30;;;16.00;71.20;;;;;;5034881;28;46537;-61
2022/06/25 00:42:33;;;;;;;5.07;1.60;;;16.00;71.10;;;;;;5031175;28;46415;-62
2022/06/25 00:44:59;;;;;;;2.97;1.50;;;16.00;71.10;;;;;;5033566;28;46386;-62
2022/06/25 00:47:25;;;;;;;3.90;1.47;;;16.00;71.20;;;;;;5030020;28;45920;-62
2022/06/25 00:49:50;;;;;;;6.10;1.70;;;16.00;71.10;;;;;;5031704;28;46530;-61
2022/06/25 00:52:18;;;;;;;3.90;1.50;;;16.00;71.10;;;;;;5031815;28;46523;-61
2022/06/25 00:54:50;;;;;;;9.87;2.87;;;16.00;71.10;;;;;;5032906;28;46391;-61
2022/06/25 00:57:37;;;;;;;3.30;1.83;;;16.00;71.00;;;;;;5035826;28;46306;-61
2022/06/25 01:00:09;;;;;;;4.13;1.70;;;16.00;71.10;;;;;;5029126;28;46331;-61
2022/06/25 01:02:36;;;;;;;2.90;2.00;;;16.00;71.00;;;;;;5030541;28;46474;-61
2022/06/25 01:05:06;;;;;;;6.07;1.80;;;16.00;71.10;;;;;;5032217;28;46587;-62
2022/06/25 01:07:35;;;;;;;6.53;1.83;;;16.00;71.30;;;;;;5031464;28;46402;-61
2022/06/25 01:10:01;;;;;;;3.13;1.50;;;15.90;71.40;;;;;;5029703;28;46422;-61
2022/06/25 01:12:27;;;;;;;9.20;1.43;;;16.00;71.50;;;;;;5031897;28;46414;-62
2022/06/25 01:15:04;;;;;;;2.37;1.43;;;15.90;71.50;;;;;;5028382;28;46359;-61
2022/06/25 01:17:30;;;;;;;10.93;1.80;;;16.00;71.60;;;;;;5032965;28;46288;-60
2022/06/25 01:19:55;;;;;;;3.23;1.60;;;15.90;71.60;;;;;;5031283;28;46383;-60
2022/06/25 01:22:21;;;;;;;9.50;2.10;;;15.90;71.60;;;;;;5029864;28;46374;-60
2022/06/25 01:24:47;;;;;;;3.17;1.40;;;15.90;71.70;;;;;;5030756;28;47413;-60
2022/06/25 01:27:14;;;;;;;5.43;1.40;;;15.90;71.70;;;;;;5030526;28;46498;-62
2022/06/25 01:29:40;;;;;;;4.30;1.80;;;15.90;71.60;;;;;;5031889;28;46331;-62
2022/06/25 01:32:06;;;;;;;2.37;1.23;;;15.90;71.80;;;;;;5031635;28;45858;-62
2022/06/25 01:34:32;;;;;;;13.40;1.30;;;15.90;71.90;;;;;;5030634;28;47304;-61
2022/06/25 01:36:58;;;;;;;3.30;1.33;;;15.90;71.70;;;;;;5030511;28;46433;-61
2022/06/25 01:39:23;;;;;;;3.50;1.40;;;15.90;71.70;;;;;;5032214;28;46358;-61
2022/06/25 01:41:49;;;;;;;4.00;1.60;;;15.90;71.70;;;;;;5029318;28;46658;-61
2022/06/25 01:44:15;;;;;;;4.63;1.40;;;15.90;71.60;;;;;;5030923;28;48006;-62
2022/06/25 01:46:41;;;;;;;5.73;1.40;;;15.90;71.60;;;;;;5030060;28;46359;-61
2022/06/25 01:49:06;;;;;;;2.90;1.53;;;15.90;71.50;;;;;;5032713;28;45832;-62
2022/06/25 01:51:32;;;;;;;5.37;1.40;;;15.90;71.50;;;;;;5033534;28;46122;-61
2022/06/25 01:53:57;;;;;;;4.80;1.53;;;15.90;72.70;;;;;;5032672;28;46412;-63
2022/06/25 01:56:23;;;;;;;3.10;1.33;;;15.90;71.70;;;;;;5032141;28;46561;-61
2022/06/25 01:58:48;;;;;;;4.57;1.33;;;15.90;71.50;;;;;;5032487;28;46534;-62
2022/06/25 02:01:14;;;;;;;2.90;1.30;;;15.90;71.50;;;;;;5032145;28;46437;-61
2022/06/25 02:03:40;;;;;;;9.60;1.70;;;15.90;71.50;;;;;;5033538;28;47093;-61
2022/06/25 02:06:06;;;;;;;3.77;1.47;;;15.90;71.40;;;;;;5028266;28;46466;-62
2022/06/25 02:08:35;;;;;;;3.57;1.40;;;15.90;71.50;;;;;;5038593;28;45965;-60
2022/06/25 02:11:03;;;;;;;13.77;1.67;;;15.90;71.30;;;;;;5035406;28;46366;-62
2022/06/25 02:13:29;;;;;;;5.23;1.50;;;15.90;71.40;;;;;;5030334;28;46470;-62
2022/06/25 02:15:55;;;;;;;5.87;1.50;;;15.90;71.30;;;;;;5034080;28;46405;-62
2022/06/25 02:18:21;;;;;;;3.63;1.80;;;15.90;71.50;;;;;;5034937;28;46387;-61
2022/06/25 02:20:47;;;;;;;6.30;1.40;;;15.90;71.40;;;;;;5031808;28;46528;-61
2022/06/25 02:23:14;;;;;;;10.50;1.40;;;15.90;71.50;;;;;;5032738;28;47066;-61
2022/06/25 02:25:40;;;;;;;4.20;1.60;;;15.90;71.50;;;;;;5033918;28;46259;-62
2022/06/25 02:28:06;;;;;;;4.53;1.67;;;15.90;71.60;;;;;;5032485;28;45843;-62
2022/06/25 02:30:32;;;;;;;4.93;1.60;;;15.90;71.60;;;;;;5031776;28;46630;-62
2022/06/25 02:32:57;;;;;;;6.87;1.77;;;15.90;71.50;;;;;;5032544;28;46469;-61
2022/06/25 02:35:23;;;;;;;4.93;1.50;;;15.90;71.40;;;;;;5033780;28;46464;-61
2022/06/25 02:37:49;;;;;;;7.77;1.80;;;15.90;71.20;;;;;;5035519;28;46394;-61
2022/06/25 02:40:14;;;;;;;9.40;1.50;;;15.90;71.10;;;;;;5030066;28;46421;-62
2022/06/25 02:42:40;;;;;;;3.43;1.50;;;15.90;71.10;;;;;;5030930;28;46228;-61
2022/06/25 02:45:08;;;;;;;5.63;1.80;;;15.90;71.00;;;;;;5033460;28;46486;-61
2022/06/25 02:47:34;;;;;;;8.70;1.70;;;15.90;71.00;;;;;;5031696;28;46343;-63
2022/06/25 02:50:00;;;;;;;6.30;1.70;;;15.90;70.90;;;;;;5031388;28;45927;-63
2022/06/25 02:52:26;;;;;;;3.23;1.60;;;15.90;70.90;;;;;;5031818;28;46481;-62
2022/06/25 02:54:52;;;;;;;4.10;1.77;;;15.90;71.10;;;;;;5030888;28;46581;-62
2022/06/25 03:00:04;;;;;;;7.30;1.80;;;15.80;71.20;;;;;;5031665;28;46325;-61
2022/06/25 03:02:30;;;;;;;4.40;2.00;;;15.80;71.20;;;;;;5034295;28;47060;-62
2022/06/25 03:04:56;;;;;;;6.60;1.93;;;15.80;71.10;;;;;;5033243;28;46615;-61
2022/06/25 03:07:21;;;;;;;11.37;1.80;;;15.80;72.30;;;;;;5031067;28;46726;-62
2022/06/25 03:09:47;;;;;;;9.13;1.90;;;15.80;71.00;;;;;;5033166;28;46376;-63
2022/06/25 03:12:13;;;;;;;5.23;1.60;;;15.80;71.10;;;;;;5042596;28;46393;-62
2022/06/25 03:14:39;;;;;;;8.33;1.83;;;15.80;71.00;;;;;;5031540;28;46447;-61
2022/06/25 03:17:05;;;;;;;13.70;1.40;;;15.80;71.00;;;;;;5032616;28;46422;-62
2022/06/25 03:19:30;;;;;;;12.23;1.60;;;15.80;70.90;;;;;;5032503;28;46355;-61
2022/06/25 03:21:56;;;;;;;3.67;1.90;;;15.80;70.90;;;;;;5031936;28;48372;-61
2022/06/25 03:24:22;;;;;;;5.23;1.50;;;15.80;70.90;;;;;;5035489;28;46272;-61
2022/06/25 03:26:47;;;;;;;4.40;1.87;;;15.80;70.90;;;;;;5034613;28;46720;-62
2022/06/25 03:29:13;;;;;;;8.60;1.60;;;15.80;72.10;;;;;;5033901;28;46482;-60
2022/06/25 03:31:39;;;;;;;6.53;1.40;;;15.80;71.00;;;;;;5031554;28;46472;-62
2022/06/25 03:34:05;;;;;;;11.00;1.87;;;15.90;70.90;;;;;;5034511;28;46546;-60
2022/06/25 03:36:32;;;;;;;6.33;1.90;;;15.90;70.80;;;;;;5033753;28;46440;-62
2022/06/25 03:38:57;;;;;;;5.23;1.50;;;15.90;70.60;;;;;;5030534;28;46540;-61
2022/06/25 03:41:32;;;;;;;3.90;1.70;;;16.00;70.50;;;;;;5034023;28;46435;-63
2022/06/25 03:43:58;;;;;;;2.80;1.60;;;15.90;70.60;;;;;;5028029;28;46380;-61
2022/06/25 03:46:24;;;;;;;6.10;1.80;;;15.90;70.80;;;;;;5033831;28;46404;-61
2022/06/25 03:48:50;;;;;;;6.30;1.47;;;15.90;70.90;;;;;;5029911;28;46602;-61
2022/06/25 03:51:16;;;;;;;6.10;1.47;;;15.80;71.00;;;;;;5034867;28;48107;-61
2022/06/25 03:53:41;;;;;;;10.30;1.97;;;15.80;71.20;;;;;;5036703;28;46356;-62
2022/06/25 03:56:07;;;;;;;4.60;1.43;;;15.80;71.30;;;;;;5031946;28;46354;-61
2022/06/25 03:58:33;;;;;;;8.33;1.70;;;15.70;71.40;;;;;;5032316;28;46702;-61
2022/06/25 04:00:58;;;;;;;11.87;1.40;;;15.70;71.40;;;;;;5031284;28;46417;-61
2022/06/25 04:03:24;;;;;;;14.33;1.60;;;15.70;71.40;;;;;;5033171;28;46578;-61
2022/06/25 04:05:50;;;;;;;4.70;1.57;;;15.80;71.20;;;;;;5034079;28;46819;-61
2022/06/25 04:08:18;;;;;;;3.00;1.20;;;15.80;71.10;;;;;;5034246;28;46885;-61
2022/06/25 04:10:44;;;;;;;3.87;1.40;;;15.90;70.90;;;;;;5030623;28;46988;-61
2022/06/25 04:13:10;;;;;;;9.77;1.67;;;15.90;71.00;;;;;;5033381;28;46630;-61
2022/06/25 04:15:36;;;;;;;4.87;1.03;;;15.90;70.70;;;;;;5032297;28;45871;-61
2022/06/25 04:18:03;;;;;;;3.90;1.10;;;16.00;70.40;;;;;;5031189;28;46471;-62
2022/06/25 04:20:29;;;;;;;6.80;1.30;;;16.10;70.00;;;;;;5029675;28;48710;-61
2022/06/25 04:22:54;;;;;;;5.50;1.73;;;16.20;70.10;;;;;;5032725;28;46566;-61
2022/06/25 04:25:20;;;;;;;8.33;1.40;;;16.30;70.30;;;;;;5032414;28;46549;-61
2022/06/25 04:30:30;;;;;;;7.63;1.30;;;16.40;70.30;;;;;;5029933;28;46601;-61
2022/06/25 04:32:55;;;;;;;9.53;1.60;;;16.50;70.40;;;;;;5029520;28;46303;-62
2022/06/25 04:35:21;;;;;;;7.50;1.30;;;16.50;70.20;;;;;;5030726;28;46443;-61
2022/06/25 04:37:46;;;;;;;5.33;1.40;;;16.50;69.80;;;;;;5033326;28;46305;-61
2022/06/25 04:40:13;;;;;;;6.40;1.30;;;16.60;69.70;;;;;;5029814;28;46304;-62
2022/06/25 04:42:38;;;;;;;8.40;1.53;;;16.60;69.50;;;;;;5031091;28;46315;-61
2022/06/25 04:45:05;;;;;;;4.93;1.67;;;16.70;69.40;;;;;;5034787;28;46376;-62
2022/06/25 04:47:30;;;;;;;4.90;1.30;;;16.70;69.10;;;;;;5029103;28;45847;-61
2022/06/25 04:49:56;;;;;;;4.40;1.43;;;16.80;68.70;;;;;;5029208;28;47085;-61
2022/06/25 04:52:21;;;;;;;7.17;1.40;;;17.00;68.30;;;;;;5031291;28;46536;-62
2022/06/25 04:54:47;;;;;;;4.17;1.50;;;17.10;67.60;;;;;;5035809;28;46484;-61
2022/06/25 04:57:12;;;;;;;3.80;1.27;;;17.20;67.20;;;;;;5033750;28;45886;-61
2022/06/25 04:59:38;;;;;;;5.10;1.20;;;17.40;67.00;;;;;;5031911;28;47509;-61
2022/06/25 05:02:04;;;;;;;3.73;1.23;;;17.50;66.60;;;;;;5028838;28;46507;-62
2022/06/25 05:04:29;;;;;;;7.73;1.40;;;17.60;66.40;;;;;;5028627;28;46411;-61
2022/06/25 05:06:55;;;;;;;4.40;1.27;;;17.60;66.10;;;;;;5028898;28;46441;-61
2022/06/25 05:09:20;;;;;;;3.53;1.30;;;17.70;66.00;;;;;;5031004;28;46467;-62
2022/06/25 05:11:46;;;;;;;6.27;1.63;;;17.70;65.90;;;;;;5026034;28;46368;-61
2022/06/25 05:14:12;;;;;;;5.37;1.43;;;17.70;65.80;;;;;;5028637;28;46328;-62
2022/06/25 05:16:37;;;;;;;4.10;1.20;;;17.70;65.60;;;;;;5028702;28;46652;-62
2022/06/25 05:19:03;;;;;;;4.93;1.03;;;17.70;65.30;;;;;;5031395;28;47251;-62
2022/06/25 05:21:28;;;;;;;5.80;1.60;;;17.80;65.10;;;;;;5030748;28;45807;-62
2022/06/25 05:23:54;;;;;;;2.67;1.17;;;17.90;65.00;;;;;;5025320;28;46339;-62
2022/06/25 05:26:20;;;;;;;4.50;1.10;;;17.90;64.80;;;;;;5032999;28;46495;-62
2022/06/25 05:28:45;;;;;;;5.10;1.63;;;17.90;64.90;;;;;;5024382;28;47223;-61
2022/06/25 05:31:11;;;;;;;4.50;1.03;;;17.90;64.70;;;;;;5031302;28;46312;-61
2022/06/25 05:33:37;;;;;;;4.40;1.20;;;17.90;64.70;;;;;;5026690;28;46981;-61
2022/06/25 05:36:03;;;;;;;2.63;1.17;;;17.90;64.70;;;;;;5029100;28;45907;-61
2022/06/25 05:38:29;;;;;;;4.37;1.30;;;17.80;64.50;;;;;;5027810;28;46410;-60
2022/06/25 05:40:55;;;;;;;8.60;1.20;;;17.80;64.70;;;;;;5029675;28;46484;-62
2022/06/25 05:43:22;;;;;;;3.57;1.10;;;17.70;64.90;;;;;;5029821;28;46427;-60
2022/06/25 05:45:48;;;;;;;4.00;2.00;;;17.60;64.80;;;;;;5030878;28;46290;-61
2022/06/25 05:48:13;;;;;;;3.57;1.10;;;17.60;65.00;;;;;;5031265;28;47077;-61
2022/06/25 05:50:39;;;;;;;3.90;1.30;;;17.60;64.80;;;;;;5027298;28;46422;-62
2022/06/25 05:53:04;;;;;;;3.60;1.20;;;17.60;64.90;;;;;;5033176;28;45864;-62
2022/06/25 05:55:30;;;;;;;2.90;1.23;;;18.60;64.80;;;;;;5034844;28;46560;-59
2022/06/25 05:57:56;;;;;;;3.00;1.07;;;19.30;66.50;;;;;;5030799;28;47187;-61
2022/06/25 06:00:21;;;;;;;3.90;1.07;;;19.40;68.10;;;;;;5032799;28;46367;-61
2022/06/25 06:02:47;;;;;;;3.90;1.13;;;19.60;68.80;;;;;;5032678;28;45862;-62
2022/06/25 06:05:12;;;;;;;5.67;1.20;;;19.80;68.80;;;;;;5030651;28;45950;-61
2022/06/25 06:07:38;;;;;;;5.03;1.00;;;20.10;68.10;;;;;;5026815;28;46448;-60
2022/06/25 06:10:05;;;;;;;7.20;1.50;;;20.30;67.20;;;;;;5032963;28;46879;-61
2022/06/25 06:12:31;;;;;;;4.03;1.30;;;20.60;65.60;;;;;;5030826;28;46373;-60
2022/06/25 06:14:56;;;;;;;2.90;0.90;;;20.70;64.10;;;;;;5034941;28;46623;-61
2022/06/25 06:17:22;;;;;;;2.10;1.00;;;20.80;63.00;;;;;;5032829;28;46423;-61
2022/06/25 06:19:47;;;;;;;5.13;1.10;;;20.70;61.50;;;;;;5034419;28;46145;-61
2022/06/25 06:22:13;;;;;;;3.60;1.13;;;20.70;61.40;;;;;;5035722;28;46447;-60
2022/06/25 06:24:39;;;;;;;2.20;1.00;;;20.60;60.70;;;;;;5035173;28;46450;-62
2022/06/25 06:27:05;;;;;;;3.20;1.40;;;20.70;60.50;;;;;;5036801;28;46481;-61
2022/06/25 06:29:30;;;;;;;9.00;1.57;;;20.80;60.00;;;;;;5031665;28;46360;-61
2022/06/25 06:31:56;;;;;;;4.80;1.20;;;20.80;59.50;;;;;;5033570;28;45815;-61
2022/06/25 06:34:22;;;;;;;7.40;1.00;;;21.00;58.80;;;;;;5031853;28;46491;-60
2022/06/25 06:36:48;;;;;;;2.40;1.10;;;21.10;58.20;;;;;;5035113;28;46500;-60
2022/06/25 06:39:13;;;;;;;3.17;1.20;;;21.10;57.80;;;;;;5035248;28;46429;-61
2022/06/25 06:41:39;;;;;;;4.90;1.27;;;21.20;57.70;;;;;;5033720;28;46139;-61
2022/06/25 06:44:05;;;;;;;4.23;1.30;;;21.30;57.40;;;;;;5033590;28;46857;-59
2022/06/25 06:46:30;;;;;;;2.90;1.30;;;21.50;57.10;;;;;;5032268;28;46426;-62
2022/06/25 06:48:56;;;;;;;2.67;1.00;;;21.50;56.80;;;;;;5034906;28;46405;-61
2022/06/25 06:51:22;;;;;;;4.90;1.40;;;21.50;57.50;;;;;;5033121;28;46601;-60
2022/06/25 06:53:47;;;;;;;4.13;1.40;;;21.60;56.50;;;;;;5035221;28;45898;-60
2022/06/25 06:56:13;;;;;;;3.13;1.40;;;21.70;56.10;;;;;;5031535;28;47349;-61
2022/06/25 06:58:38;;;;;;;3.80;1.37;;;21.80;55.80;;;;;;5035217;28;46275;-62
2022/06/25 07:01:04;;;;;;;3.20;1.27;;;21.80;55.60;;;;;;5034356;28;46325;-61
2022/06/25 07:03:30;;;;;;;2.63;1.13;;;21.80;55.40;;;;;;5030030;28;46573;-61
2022/06/25 07:05:56;;;;;;;2.60;1.40;;;21.80;55.10;;;;;;5033747;28;47154;-62
2022/06/25 07:08:21;;;;;;;4.37;1.20;;;21.70;54.50;;;;;;5028168;28;46353;-60
2022/06/25 07:10:47;;;;;;;4.20;1.17;;;21.80;54.70;;;;;;5034500;28;46647;-59
2022/06/25 07:13:13;;;;;;;3.97;1.30;;;21.80;53.70;;;;;;5037036;28;46481;-60
2022/06/25 07:15:41;;;;;;;4.50;1.60;;;21.90;53.70;;;;;;5035707;28;48042;-59
2022/06/25 07:18:07;;;;;;;2.40;1.20;;;22.10;53.40;;;;;;5034471;28;46308;-61
2022/06/25 07:20:34;;;;;;;2.50;1.10;;;22.30;53.30;;;;;;5031431;28;46342;-60
2022/06/25 07:22:59;;;;;;;2.17;1.00;;;22.30;52.70;;;;;;5035084;28;45909;-60
2022/06/25 07:25:25;;;;;;;2.93;1.20;;;22.10;52.30;;;;;;5032363;28;46169;-61
2022/06/25 07:27:51;;;;;;;4.37;1.43;;;22.20;52.00;;;;;;5032673;28;46338;-61
2022/06/25 07:30:17;;;;;;;2.77;1.20;;;21.80;50.70;;;;;;5032744;28;46597;-62
2022/06/25 07:32:42;;;;;;;4.60;1.30;;;21.70;50.90;;;;;;5032636;28;46448;-60
2022/06/25 07:35:08;;;;;;;5.70;1.37;;;21.90;50.70;;;;;;5034540;28;46308;-61
2022/06/25 07:37:34;;;;;;;2.77;1.27;;;22.30;50.80;;;;;;5032195;28;46620;-60
2022/06/25 07:40:00;;;;;;;2.23;1.13;;;22.70;50.10;;;;;;5030484;28;46431;-60
2022/06/25 07:42:28;;;;;;;6.00;1.40;;;23.10;48.80;;;;;;5030572;28;46421;-60
2022/06/25 07:44:53;;;;;;;2.47;1.10;;;22.70;47.80;;;;;;5028731;28;46347;-60
2022/06/25 07:47:19;;;;;;;2.87;1.10;;;22.60;47.30;;;;;;5031463;28;45863;-60
2022/06/25 07:52:29;;;;;;;7.00;1.40;;;22.70;47.10;;;;;;5032251;28;46709;-59
2022/06/25 07:54:54;;;;;;;4.17;1.30;;;22.70;46.40;;;;;;5032236;28;46741;-61
2022/06/25 07:57:20;;;;;;;2.97;1.30;;;22.90;46.40;;;;;;5029338;28;46600;-62
2022/06/25 07:59:46;;;;;;;2.57;1.30;;;23.00;45.90;;;;;;5035267;28;46311;-61
2022/06/25 08:02:11;;;;;;;4.13;1.70;;;23.30;44.90;;;;;;5029161;28;46299;-61
2022/06/25 08:04:37;;;;;;;6.20;1.73;;;23.50;44.90;;;;;;5028977;28;46323;-61
2022/06/25 08:07:03;;;;;;;3.60;1.30;;;23.60;43.00;;;;;;5031762;28;46359;-60
2022/06/25 08:09:29;;;;;;;3.77;1.57;;;23.60;42.40;;;;;;5028557;28;45838;-61
2022/06/25 08:11:55;;;;;;;2.20;1.10;;;23.80;42.40;;;;;;5031802;28;46109;-61
2022/06/25 08:14:20;;;;;;;4.10;1.10;;;24.20;43.00;;;;;;5031832;28;46412;-61
2022/06/25 08:16:46;;;;;;;2.67;1.30;;;24.40;40.10;;;;;;5033607;28;46336;-61
2022/06/25 08:19:11;;;;;;;2.90;1.50;;;24.40;40.00;;;;;;5031086;28;46347;-61
2022/06/25 08:21:37;;;;;;;2.70;1.30;;;24.50;39.20;;;;;;5029992;28;46495;-61
2022/06/25 08:24:03;;;;;;;3.47;1.30;;;24.60;39.20;;;;;;5037355;28;46228;-61
2022/06/25 08:26:29;;;;;;;4.83;1.33;;;24.60;39.10;;;;;;5039234;28;46390;-61
2022/06/25 08:28:54;;;;;;;3.00;1.30;;;24.30;39.10;;;;;;5029588;28;45763;-61
2022/06/25 08:31:20;;;;;;;4.97;1.30;;;23.90;39.10;;;;;;5030468;28;46998;-60
2022/06/25 08:33:46;;;;;;;3.37;1.40;;;24.00;39.50;;;;;;5032219;28;46339;-61
2022/06/25 08:36:11;;;;;;;5.13;1.50;;;24.40;38.20;;;;;;5032747;28;46422;-61
2022/06/25 08:38:37;;;;;;;3.13;1.30;;;24.40;38.00;;;;;;5031423;28;46765;-62
2022/06/25 08:41:03;;;;;;;4.90;1.33;;;24.40;37.70;;;;;;5030278;28;46485;-61
2022/06/25 08:43:29;;;;;;;5.33;1.10;;;24.80;36.70;;;;;;5032031;28;47034;-60
2022/06/25 08:45:55;;;;;;;2.70;1.30;;;25.20;36.50;;;;;;5028348;28;46569;-62
2022/06/25 08:48:22;;;;;;;2.30;1.17;;;25.40;35.70;;;;;;5029550;28;46398;-62
2022/06/25 08:50:50;;;;;;;4.30;1.30;;;25.40;35.50;;;;;;5031540;28;46449;-61
2022/06/25 08:53:16;;;;;;;3.80;1.20;;;25.20;35.70;;;;;;5029934;28;47187;-61
2022/06/25 08:55:44;;;;;;;2.83;1.20;;;24.80;36.10;;;;;;5028745;28;46655;-61
2022/06/25 08:58:11;;;;;;;3.07;1.40;;;24.40;36.80;;;;;;5031577;28;47314;-61
2022/06/25 09:00:39;;;;;;;3.13;1.23;;;24.10;37.80;;;;;;5031442;28;46423;-62
2022/06/25 09:03:06;;;;;;;3.33;1.30;;;23.90;37.60;;;;;;5031262;28;46360;-61
2022/06/25 09:05:34;;;;;;;2.50;1.30;;;24.20;37.70;;;;;;5030837;28;46551;-59
2022/06/25 09:08:02;;;;;;;3.53;1.20;;;24.40;36.00;;;;;;5028426;28;46529;-59
2022/06/25 09:10:28;;;;;;;3.07;1.10;;;24.90;35.10;;;;;;5027849;28;46371;-60
2022/06/25 09:12:56;;;;;;;2.30;1.20;;;25.40;33.70;;;;;;5029994;28;46460;-59
2022/06/25 09:15:24;;;;;;;4.40;1.20;;;25.80;32.80;;;;;;5027991;28;45735;-62
2022/06/25 09:17:51;;;;;;;5.27;1.23;;;26.10;32.30;;;;;;5029840;28;46433;-60
2022/06/25 09:20:20;;;;;;;2.80;1.27;;;26.30;31.50;;;;;;5031509;28;47024;-62
2022/06/25 09:23:02;;;;;;;5.17;1.43;;;26.40;31.00;;;;;;5034246;28;46300;-62
2022/06/25 09:25:30;;;;;;;3.57;1.17;;;26.60;30.40;;;;;;5027460;28;46692;-60
2022/06/25 09:27:57;;;;;;;2.83;1.10;;;26.70;30.20;;;;;;5029135;28;46468;-63
2022/06/25 09:30:29;;;;;;;2.90;1.37;;;26.20;30.30;;;;;;5028481;28;46539;-61
2022/06/25 09:33:02;;;;;;;2.93;1.10;;;26.10;31.00;;;;;;5026893;28;46508;-61
2022/06/25 09:35:31;;;;;;;2.60;1.20;;;25.80;30.20;;;;;;5029894;28;46458;-62
2022/06/25 09:38:09;;;;;;;3.30;1.40;;;25.80;30.30;;;;;;5024342;28;45938;-62
2022/06/25 09:40:36;;;;;;;5.93;1.37;;;26.00;30.70;;;;;;5031440;28;46775;-61
2022/06/25 09:43:16;;;;;;;3.50;1.33;;;26.10;30.00;;;;;;5027548;28;46617;-60
2022/06/25 09:45:44;;;;;;;2.30;1.20;;;25.90;28.80;;;;;;5033543;28;45812;-60
2022/06/25 09:48:23;;;;;;;3.80;1.10;;;26.00;28.40;;;;;;5028503;28;45897;-60
2022/06/25 09:51:20;;;;;;;3.20;1.53;;;26.20;27.30;;;;;;5030913;28;46495;-59
2022/06/25 09:53:47;;;;;;;5.03;1.20;;;26.20;27.90;;;;;;5031109;28;48062;-59
2022/06/25 09:56:18;;;;;;;5.57;1.20;;;26.00;28.10;;;;;;5028894;28;46518;-59
2022/06/25 09:58:44;;;;;;;2.70;1.20;;;26.10;28.00;;;;;;5031464;28;46809;-61
2022/06/25 10:01:15;;;;;;;3.40;1.50;;;26.20;27.80;;;;;;5029389;28;46449;-61
2022/06/25 10:03:42;;;;;;;3.63;1.30;;;26.60;27.80;;;;;;5029575;28;46350;-60
2022/06/25 10:06:08;;;;;;;3.43;1.30;;;26.90;27.70;;;;;;5029326;28;46380;-58
2022/06/25 10:08:35;;;;;;;2.33;1.10;;;27.20;27.40;;;;;;5029696;28;45906;-61
2022/06/25 10:11:04;;;;;;;3.17;1.23;;;27.40;27.30;;;;;;5029983;28;46500;-60
2022/06/25 10:13:29;;;;;;;3.20;1.17;;;27.60;27.40;;;;;;5032472;28;46460;-60
2022/06/25 10:15:56;;;;;;;3.30;1.17;;;27.80;27.50;;;;;;5030809;28;46125;-62
2022/06/25 10:18:22;;;;;;;2.40;1.10;;;27.70;26.50;;;;;;5033436;28;46375;-61
2022/06/25 10:20:48;;;;;;;3.60;1.50;;;27.50;26.20;;;;;;5030711;28;46485;-60
2022/06/25 10:23:15;;;;;;;2.60;1.30;;;27.30;26.10;;;;;;5032971;28;46862;-61
2022/06/25 10:25:42;;;;;;;2.40;1.20;;;26.80;26.90;;;;;;5029223;28;46719;-62
2022/06/25 10:28:13;;;;;;;4.53;1.20;;;26.30;26.70;;;;;;5031052;28;46417;-61
2022/06/25 10:30:50;;;;;;;2.70;1.20;;;26.00;26.90;;;;;;5029796;28;46700;-60
2022/06/25 10:33:21;;;;;;;3.47;1.30;;;26.00;27.30;;;;;;5034554;28;46604;-61
2022/06/25 10:35:48;;;;;;;2.83;1.27;;;26.00;27.20;;;;;;5031247;28;46448;-60
2022/06/25 10:38:22;;;;;;;2.77;1.20;;;26.00;27.30;;;;;;5029971;28;46455;-59
2022/06/25 10:40:49;;;;;;;5.53;1.10;;;26.40;26.70;;;;;;5033890;28;46662;-60
2022/06/25 10:43:46;;;;;;;2.03;0.97;;;26.40;26.90;;;;;;5026896;28;46349;-60
2022/06/25 10:46:30;;;;;;;3.77;1.60;;;26.30;26.70;;;;;;5032995;28;46311;-59
2022/06/25 10:49:12;;;;;;;3.57;1.10;;;26.10;27.50;;;;;;5028728;28;45889;-60
2022/06/25 10:51:45;;;;;;;3.60;1.20;;;26.00;28.20;;;;;;5032935;28;46643;-59
2022/06/25 10:54:19;;;;;;;2.67;1.20;;;26.00;28.10;;;;;;5036775;28;46487;-61
2022/06/25 10:56:46;;;;;;;3.37;1.37;;;26.50;28.00;;;;;;5036411;28;46424;-61
2022/06/25 10:59:34;;;;;;;2.97;1.30;;;26.90;27.00;;;;;;5033601;28;46411;-61
2022/06/25 11:02:08;;;;;;;4.10;1.40;;;27.00;26.80;;;;;;5035943;28;46366;-60
2022/06/25 11:04:34;;;;;;;3.00;1.33;;;27.10;26.50;;;;;;5032522;28;46425;-61
2022/06/25 11:07:11;;;;;;;2.30;1.17;;;27.20;25.90;;;;;;5033173;28;45742;-60
2022/06/25 11:09:37;;;;;;;2.83;1.10;;;27.00;25.40;;;;;;5029713;28;46378;-61
2022/06/25 11:12:04;;;;;;;2.97;1.20;;;26.90;25.30;;;;;;5032933;28;46474;-61
2022/06/25 11:14:30;;;;;;;4.90;1.30;;;26.70;25.30;;;;;;5035412;28;48279;-60
2022/06/25 11:16:56;;;;;;;2.30;1.00;;;26.90;25.00;;;;;;5028295;28;46442;-60
2022/06/25 11:19:22;;;;;;;3.13;1.30;;;27.00;24.50;;;;;;5031947;28;46371;-62
2022/06/25 11:21:49;;;;;;;16.83;2.50;;;26.60;24.80;;;;;;5029429;28;46729;-60
2022/06/25 11:24:26;;;;;;;2.57;1.10;;;26.50;25.30;;;;;;5028447;28;47211;-58
2022/06/25 11:29:46;;;;;;;2.60;1.20;;;26.60;25.20;;;;;;5030143;28;46468;-60
2022/06/25 11:32:15;;;;;;;3.33;1.20;;;26.60;24.70;;;;;;5031092;28;46322;-59
2022/06/25 11:34:41;;;;;;;2.90;1.10;;;26.40;25.10;;;;;;5030966;28;47347;-59
2022/06/25 11:37:08;;;;;;;2.40;1.07;;;26.20;25.70;;;;;;5030704;28;46431;-60
2022/06/25 11:39:34;;;;;;;8.30;1.17;;;25.90;25.60;;;;;;5030948;28;46386;-60
2022/06/25 11:42:01;;;;;;;3.40;1.27;;;25.50;26.20;;;;;;5032601;28;46444;-60
2022/06/25 11:44:27;;;;;;;2.60;1.20;;;25.40;26.20;;;;;;5030257;28;46314;-62
2022/06/25 11:46:53;;;;;;;2.87;1.50;;;25.30;26.10;;;;;;5030224;28;46605;-61
2022/06/25 11:49:21;;;;;;;2.60;1.10;;;25.40;26.10;;;;;;5032305;28;46641;-61
2022/06/25 11:51:51;;;;;;;2.87;1.20;;;25.70;25.50;;;;;;5032032;28;46694;-60
2022/06/25 11:54:22;;;;;;;2.30;1.20;;;26.10;25.20;;;;;;5030017;28;46288;-61
2022/06/25 11:56:53;;;;;;;3.23;1.20;;;26.20;25.00;;;;;;5031972;28;46397;-60
2022/06/25 11:59:23;;;;;;;2.77;1.00;;;25.90;24.70;;;;;;5029764;28;46384;-62
2022/06/25 12:01:50;;;;;;;2.90;1.20;;;25.40;25.50;;;;;;5029286;28;46406;-60
2022/06/25 12:04:16;;;;;;;3.50;1.17;;;25.30;26.10;;;;;;5036414;28;46638;-61
2022/06/25 12:06:42;;;;;;;5.20;1.20;;;25.60;25.80;;;;;;5028252;28;46403;-62
2022/06/25 12:09:08;;;;;;;2.10;1.00;;;25.80;25.80;;;;;;5035994;28;46467;-61
2022/06/25 12:11:34;;;;;;;3.13;1.20;;;26.00;25.40;;;;;;5034691;28;46402;-60
2022/06/25 12:13:59;;;;;;;4.40;1.20;;;26.00;24.80;;;;;;5033480;28;47134;-60
2022/06/25 12:16:41;;;;;;;5.43;1.20;;;25.90;24.60;;;;;;5032999;28;46387;-60
2022/06/25 12:19:07;;;;;;;2.10;0.87;;;25.70;24.00;;;;;;5029909;28;46722;-59
2022/06/25 12:21:35;;;;;;;3.10;1.20;;;25.50;24.40;;;;;;5031872;28;46449;-59
2022/06/25 12:24:02;;;;;;;2.53;1.00;;;25.40;24.70;;;;;;5031949;28;46391;-60
2022/06/25 12:26:35;;;;;;;3.90;1.40;;;25.50;24.90;;;;;;5031099;28;46449;-60
2022/06/25 12:29:09;;;;;;;4.43;0.93;;;25.70;24.80;;;;;;5031101;28;46927;-61
2022/06/25 12:31:35;;;;;;;4.13;1.27;;;25.70;24.40;;;;;;5031334;28;46633;-60
2022/06/25 12:34:05;;;;;;;3.60;1.00;;;25.70;24.90;;;;;;5030285;28;45974;-60
2022/06/25 12:36:35;;;;;;;2.70;1.20;;;25.60;24.50;;;;;;5028189;28;45967;-58
2022/06/25 12:39:00;;;;;;;3.07;1.20;;;25.50;24.40;;;;;;5032079;28;45931;-60
2022/06/25 12:41:53;;;;;;;9.80;1.00;;;25.40;24.50;;;;;;5031492;28;46419;-61
2022/06/25 12:44:19;;;;;;;2.30;0.90;;;25.60;24.60;;;;;;5028783;28;46966;-61
2022/06/25 12:47:01;;;;;;;2.40;1.10;;;25.60;24.40;;;;;;5027356;28;46383;-60
2022/06/25 12:49:48;;;;;;;2.37;1.00;;;25.50;24.60;;;;;;5029569;28;46332;-61
2022/06/25 12:52:19;;;;;;;3.37;1.00;;;25.60;23.70;;;;;;5029367;28;46523;-60
2022/06/25 12:54:48;;;;;;;3.70;1.00;;;25.70;23.50;;;;;;5030733;28;46716;-60
2022/06/25 12:57:22;;;;;;;2.20;1.00;;;25.40;23.70;;;;;;5026547;28;46460;-60